sensor_id;sensor_type;location;lat;lon;timestamp;temperature;humidity
59847;DHT22;45728;48.788;2.302;2023-04-25T00:00:49;9.50;99.90
59847;DHT22;45728;48.788;2.302;2023-04-25T00:03:15;9.50;99.90
59847;DHT22;45728;48.788;2.302;2023-04-25T00:05:44;9.50;99.90
59847;DHT22;45728;48.788;2.302;2023-04-25T00:08:11;9.50;99.90
59847;DHT22;45728;48.788;2.302;2023-04-25T00:10:37;9.60;99.90
59847;DHT22;45728;48.788;2.302;2023-04-25T00:13:03;9.50;99.90
59847;DHT22;45728;48.788;2.302;2023-04-25T00:15:29;9.40;99.90
59847;DHT22;45728;48.788;2.302;2023-04-25T00:17:57;9.30;99.90
59847;DHT22;45728;48.788;2.302;2023-04-25T00:20:23;9.20;99.90
59847;DHT22;45728;48.788;2.302;2023-04-25T00:22:51;9.20;99.90
59847;DHT22;45728;48.788;2.302;2023-04-25T00:25:19;9.10;99.90
59847;DHT22;45728;48.788;2.302;2023-04-25T00:27:45;9.00;99.90
59847;DHT22;45728;48.788;2.302;2023-04-25T00:30:11;9.00;99.90
59847;DHT22;45728;48.788;2.302;2023-04-25T00:32:38;9.00;99.90
59847;DHT22;45728;48.788;2.302;2023-04-25T00:35:04;9.00;99.90
59847;DHT22;45728;48.788;2.302;2023-04-25T00:37:30;8.90;99.90
59847;DHT22;45728;48.788;2.302;2023-04-25T00:39:58;8.90;99.90
59847;DHT22;45728;48.788;2.302;2023-04-25T00:42:25;8.90;99.90
59847;DHT22;45728;48.788;2.302;2023-04-25T00:44:52;8.80;99.90
59847;DHT22;45728;48.788;2.302;2023-04-25T00:47:18;8.80;99.90
59847;DHT22;45728;48.788;2.302;2023-04-25T00:49:45;8.80;99.90
59847;DHT22;45728;48.788;2.302;2023-04-25T00:52:11;8.70;99.90
59847;DHT22;45728;48.788;2.302;2023-04-25T00:54:37;8.70;99.90
59847;DHT22;45728;48.788;2.302;2023-04-25T00:57:04;8.60;99.90
59847;DHT22;45728;48.788;2.302;2023-04-25T00:59:30;8.50;99.90
59847;DHT22;45728;48.788;2.302;2023-04-25T01:01:56;8.60;99.90
59847;DHT22;45728;48.788;2.302;2023-04-25T01:04:23;8.60;99.90
59847;DHT22;45728;48.788;2.302;2023-04-25T01:06:49;8.60;99.90
59847;DHT22;45728;48.788;2.302;2023-04-25T01:09:16;8.60;99.90
59847;DHT22;45728;48.788;2.302;2023-04-25T01:11:42;8.60;99.90
59847;DHT22;45728;48.788;2.302;2023-04-25T01:14:08;8.60;99.90
59847;DHT22;45728;48.788;2.302;2023-04-25T01:16:34;8.60;99.90
59847;DHT22;45728;48.788;2.302;2023-04-25T01:19:00;8.60;99.90
59847;DHT22;45728;48.788;2.302;2023-04-25T01:21:27;8.70;99.90
59847;DHT22;45728;48.788;2.302;2023-04-25T01:23:55;8.70;99.90
59847;DHT22;45728;48.788;2.302;2023-04-25T01:26:23;8.80;99.90
59847;DHT22;45728;48.788;2.302;2023-04-25T01:28:50;8.80;99.90
59847;DHT22;45728;48.788;2.302;2023-04-25T01:31:16;8.80;99.90
59847;DHT22;45728;48.788;2.302;2023-04-25T01:33:44;8.70;99.90
59847;DHT22;45728;48.788;2.302;2023-04-25T01:36:10;8.80;99.90
59847;DHT22;45728;48.788;2.302;2023-04-25T01:38:37;8.80;99.90
59847;DHT22;45728;48.788;2.302;2023-04-25T01:41:03;8.80;99.90
59847;DHT22;45728;48.788;2.302;2023-04-25T01:43:29;8.90;99.90
59847;DHT22;45728;48.788;2.302;2023-04-25T01:45:55;8.80;99.90
59847;DHT22;45728;48.788;2.302;2023-04-25T01:48:22;8.80;99.90
59847;DHT22;45728;48.788;2.302;2023-04-25T01:50:48;8.80;99.90
59847;DHT22;45728;48.788;2.302;2023-04-25T01:53:14;8.70;99.90
59847;DHT22;45728;48.788;2.302;2023-04-25T01:55:41;8.80;99.90
59847;DHT22;45728;48.788;2.302;2023-04-25T01:58:07;8.70;99.90
59847;DHT22;45728;48.788;2.302;2023-04-25T02:00:36;8.70;99.90
59847;DHT22;45728;48.788;2.302;2023-04-25T02:03:06;8.70;99.90
59847;DHT22;45728;48.788;2.302;2023-04-25T02:05:37;8.70;99.90
59847;DHT22;45728;48.788;2.302;2023-04-25T02:08:05;8.70;99.90
59847;DHT22;45728;48.788;2.302;2023-04-25T02:10:32;8.70;99.90
59847;DHT22;45728;48.788;2.302;2023-04-25T02:12:58;8.70;99.90
59847;DHT22;45728;48.788;2.302;2023-04-25T02:15:24;8.70;99.90
59847;DHT22;45728;48.788;2.302;2023-04-25T02:17:50;8.80;99.90
59847;DHT22;45728;48.788;2.302;2023-04-25T02:20:22;8.80;99.90
59847;DHT22;45728;48.788;2.302;2023-04-25T02:22:49;8.80;99.90
59847;DHT22;45728;48.788;2.302;2023-04-25T02:25:15;8.80;99.90
59847;DHT22;45728;48.788;2.302;2023-04-25T02:27:42;8.80;99.90
59847;DHT22;45728;48.788;2.302;2023-04-25T02:30:09;8.80;99.90
59847;DHT22;45728;48.788;2.302;2023-04-25T02:32:35;8.70;99.90
59847;DHT22;45728;48.788;2.302;2023-04-25T02:35:01;8.70;99.90
59847;DHT22;45728;48.788;2.302;2023-04-25T02:37:31;8.70;99.90
59847;DHT22;45728;48.788;2.302;2023-04-25T02:39:57;8.70;99.90
59847;DHT22;45728;48.788;2.302;2023-04-25T02:42:23;8.80;99.90
59847;DHT22;45728;48.788;2.302;2023-04-25T02:44:49;8.70;99.90
59847;DHT22;45728;48.788;2.302;2023-04-25T02:47:15;8.80;99.90
59847;DHT22;45728;48.788;2.302;2023-04-25T02:49:41;8.80;99.90
59847;DHT22;45728;48.788;2.302;2023-04-25T02:52:07;8.90;99.90
59847;DHT22;45728;48.788;2.302;2023-04-25T02:54:34;8.90;99.90
59847;DHT22;45728;48.788;2.302;2023-04-25T02:57:00;8.90;99.90
59847;DHT22;45728;48.788;2.302;2023-04-25T02:59:28;8.70;99.90
59847;DHT22;45728;48.788;2.302;2023-04-25T03:01:54;8.60;99.90
59847;DHT22;45728;48.788;2.302;2023-04-25T03:04:20;8.70;99.90
59847;DHT22;45728;48.788;2.302;2023-04-25T03:06:50;8.70;99.90
59847;DHT22;45728;48.788;2.302;2023-04-25T03:09:16;8.60;99.90
59847;DHT22;45728;48.788;2.302;2023-04-25T03:11:43;8.60;99.90
59847;DHT22;45728;48.788;2.302;2023-04-25T03:14:09;8.50;99.90
59847;DHT22;45728;48.788;2.302;2023-04-25T03:16:35;8.50;99.90
59847;DHT22;45728;48.788;2.302;2023-04-25T03:19:02;8.60;99.90
59847;DHT22;45728;48.788;2.302;2023-04-25T03:21:29;8.60;99.90
59847;DHT22;45728;48.788;2.302;2023-04-25T03:23:58;8.60;99.90
59847;DHT22;45728;48.788;2.302;2023-04-25T03:26:24;8.50;99.90
59847;DHT22;45728;48.788;2.302;2023-04-25T03:28:50;8.40;99.90
59847;DHT22;45728;48.788;2.302;2023-04-25T03:31:16;8.40;99.90
59847;DHT22;45728;48.788;2.302;2023-04-25T03:33:42;8.40;99.90
59847;DHT22;45728;48.788;2.302;2023-04-25T03:36:09;8.40;99.90
59847;DHT22;45728;48.788;2.302;2023-04-25T03:38:35;8.40;99.90
59847;DHT22;45728;48.788;2.302;2023-04-25T03:41:02;8.30;99.90
59847;DHT22;45728;48.788;2.302;2023-04-25T03:43:28;8.40;99.90
59847;DHT22;45728;48.788;2.302;2023-04-25T03:45:54;8.30;99.90
59847;DHT22;45728;48.788;2.302;2023-04-25T03:48:21;8.20;99.90
59847;DHT22;45728;48.788;2.302;2023-04-25T03:50:48;8.20;99.90
59847;DHT22;45728;48.788;2.302;2023-04-25T03:53:14;8.30;99.90
59847;DHT22;45728;48.788;2.302;2023-04-25T03:55:40;8.30;99.90
59847;DHT22;45728;48.788;2.302;2023-04-25T03:58:06;8.20;99.90
59847;DHT22;45728;48.788;2.302;2023-04-25T04:00:34;8.20;99.90
59847;DHT22;45728;48.788;2.302;2023-04-25T04:03:00;8.20;99.90
59847;DHT22;45728;48.788;2.302;2023-04-25T04:05:26;8.20;99.90
59847;DHT22;45728;48.788;2.302;2023-04-25T04:07:53;8.20;99.90
59847;DHT22;45728;48.788;2.302;2023-04-25T04:10:20;8.20;99.90
59847;DHT22;45728;48.788;2.302;2023-04-25T04:12:46;8.20;99.90
59847;DHT22;45728;48.788;2.302;2023-04-25T04:15:12;8.20;99.90
59847;DHT22;45728;48.788;2.302;2023-04-25T04:17:38;8.20;99.90
59847;DHT22;45728;48.788;2.302;2023-04-25T04:20:05;8.20;99.90
59847;DHT22;45728;48.788;2.302;2023-04-25T04:22:31;8.10;99.90
59847;DHT22;45728;48.788;2.302;2023-04-25T04:24:58;8.10;99.90
59847;DHT22;45728;48.788;2.302;2023-04-25T04:27:24;8.20;99.90
59847;DHT22;45728;48.788;2.302;2023-04-25T04:29:50;8.20;99.90
59847;DHT22;45728;48.788;2.302;2023-04-25T04:32:18;8.20;99.90
59847;DHT22;45728;48.788;2.302;2023-04-25T04:34:44;8.20;99.90
59847;DHT22;45728;48.788;2.302;2023-04-25T04:37:10;8.20;99.90
59847;DHT22;45728;48.788;2.302;2023-04-25T04:39:39;8.20;99.90
59847;DHT22;45728;48.788;2.302;2023-04-25T04:42:05;8.30;99.90
59847;DHT22;45728;48.788;2.302;2023-04-25T04:44:31;8.30;99.90
59847;DHT22;45728;48.788;2.302;2023-04-25T04:47:01;8.30;99.90
59847;DHT22;45728;48.788;2.302;2023-04-25T04:49:27;8.40;99.90
59847;DHT22;45728;48.788;2.302;2023-04-25T04:51:53;8.40;99.90
59847;DHT22;45728;48.788;2.302;2023-04-25T04:54:20;8.40;99.90
59847;DHT22;45728;48.788;2.302;2023-04-25T04:56:46;8.30;99.90
59847;DHT22;45728;48.788;2.302;2023-04-25T04:59:12;8.40;99.90
59847;DHT22;45728;48.788;2.302;2023-04-25T05:01:38;8.40;99.90
59847;DHT22;45728;48.788;2.302;2023-04-25T05:04:05;8.30;99.90
59847;DHT22;45728;48.788;2.302;2023-04-25T05:06:31;8.40;99.90
59847;DHT22;45728;48.788;2.302;2023-04-25T05:08:58;8.40;99.90
59847;DHT22;45728;48.788;2.302;2023-04-25T05:11:24;8.40;99.90
59847;DHT22;45728;48.788;2.302;2023-04-25T05:13:54;8.40;99.90
59847;DHT22;45728;48.788;2.302;2023-04-25T05:16:20;8.40;99.90
59847;DHT22;45728;48.788;2.302;2023-04-25T05:18:47;8.40;99.90
59847;DHT22;45728;48.788;2.302;2023-04-25T05:21:13;8.40;99.90
59847;DHT22;45728;48.788;2.302;2023-04-25T05:23:39;8.40;99.90
59847;DHT22;45728;48.788;2.302;2023-04-25T05:26:05;8.50;99.90
59847;DHT22;45728;48.788;2.302;2023-04-25T05:28:31;8.50;99.90
59847;DHT22;45728;48.788;2.302;2023-04-25T05:30:57;8.40;99.90
59847;DHT22;45728;48.788;2.302;2023-04-25T05:33:23;8.50;99.90
59847;DHT22;45728;48.788;2.302;2023-04-25T05:35:50;8.50;99.90
59847;DHT22;45728;48.788;2.302;2023-04-25T05:38:16;8.60;99.90
59847;DHT22;45728;48.788;2.302;2023-04-25T05:40:42;8.60;99.90
59847;DHT22;45728;48.788;2.302;2023-04-25T05:43:08;8.50;99.90
59847;DHT22;45728;48.788;2.302;2023-04-25T05:45:34;8.40;99.90
59847;DHT22;45728;48.788;2.302;2023-04-25T05:48:01;8.40;99.90
59847;DHT22;45728;48.788;2.302;2023-04-25T05:50:27;8.40;99.90
59847;DHT22;45728;48.788;2.302;2023-04-25T05:52:53;8.40;99.90
59847;DHT22;45728;48.788;2.302;2023-04-25T05:55:19;8.50;99.90
59847;DHT22;45728;48.788;2.302;2023-04-25T05:57:45;8.50;99.90
59847;DHT22;45728;48.788;2.302;2023-04-25T06:00:14;8.40;99.90
59847;DHT22;45728;48.788;2.302;2023-04-25T06:02:42;8.50;99.90
59847;DHT22;45728;48.788;2.302;2023-04-25T06:05:08;8.50;99.90
59847;DHT22;45728;48.788;2.302;2023-04-25T06:07:34;8.50;99.90
59847;DHT22;45728;48.788;2.302;2023-04-25T06:10:00;8.40;99.90
59847;DHT22;45728;48.788;2.302;2023-04-25T06:12:26;8.40;99.90
59847;DHT22;45728;48.788;2.302;2023-04-25T06:14:52;8.50;99.90
59847;DHT22;45728;48.788;2.302;2023-04-25T06:17:18;8.50;99.90
59847;DHT22;45728;48.788;2.302;2023-04-25T06:19:44;8.50;99.90
59847;DHT22;45728;48.788;2.302;2023-04-25T06:22:10;8.40;99.90
59847;DHT22;45728;48.788;2.302;2023-04-25T06:24:36;8.50;99.90
59847;DHT22;45728;48.788;2.302;2023-04-25T06:27:02;8.40;99.90
59847;DHT22;45728;48.788;2.302;2023-04-25T06:29:29;8.40;99.90
59847;DHT22;45728;48.788;2.302;2023-04-25T06:31:55;8.50;99.90
59847;DHT22;45728;48.788;2.302;2023-04-25T06:34:21;8.60;99.90
59847;DHT22;45728;48.788;2.302;2023-04-25T06:36:47;8.60;99.90
59847;DHT22;45728;48.788;2.302;2023-04-25T06:39:13;8.60;99.90
59847;DHT22;45728;48.788;2.302;2023-04-25T06:41:39;8.60;99.90
59847;DHT22;45728;48.788;2.302;2023-04-25T06:44:05;8.60;99.90
59847;DHT22;45728;48.788;2.302;2023-04-25T06:46:31;8.60;99.90
59847;DHT22;45728;48.788;2.302;2023-04-25T06:48:57;8.60;99.90
59847;DHT22;45728;48.788;2.302;2023-04-25T06:51:23;8.60;99.90
59847;DHT22;45728;48.788;2.302;2023-04-25T06:53:50;8.60;99.90
59847;DHT22;45728;48.788;2.302;2023-04-25T06:56:16;8.60;99.90
59847;DHT22;45728;48.788;2.302;2023-04-25T06:58:42;8.70;99.90
59847;DHT22;45728;48.788;2.302;2023-04-25T07:01:08;8.70;99.90
59847;DHT22;45728;48.788;2.302;2023-04-25T07:03:34;8.70;99.90
59847;DHT22;45728;48.788;2.302;2023-04-25T07:06:00;8.80;99.90
59847;DHT22;45728;48.788;2.302;2023-04-25T07:08:26;8.90;99.90
59847;DHT22;45728;48.788;2.302;2023-04-25T07:10:52;8.90;99.90
59847;DHT22;45728;48.788;2.302;2023-04-25T07:13:18;8.80;99.90
59847;DHT22;45728;48.788;2.302;2023-04-25T07:15:44;8.80;99.90
59847;DHT22;45728;48.788;2.302;2023-04-25T07:18:10;8.80;99.90
59847;DHT22;45728;48.788;2.302;2023-04-25T07:20:36;8.70;99.90
59847;DHT22;45728;48.788;2.302;2023-04-25T07:23:02;8.70;99.90
59847;DHT22;45728;48.788;2.302;2023-04-25T07:25:29;8.70;99.90
59847;DHT22;45728;48.788;2.302;2023-04-25T07:28:13;8.80;99.90
59847;DHT22;45728;48.788;2.302;2023-04-25T07:30:39;8.80;99.90
59847;DHT22;45728;48.788;2.302;2023-04-25T07:33:05;8.80;99.90
59847;DHT22;45728;48.788;2.302;2023-04-25T07:35:31;8.80;99.90
59847;DHT22;45728;48.788;2.302;2023-04-25T07:37:57;8.80;99.90
59847;DHT22;45728;48.788;2.302;2023-04-25T07:40:24;8.80;99.90
59847;DHT22;45728;48.788;2.302;2023-04-25T07:42:50;8.70;99.90
59847;DHT22;45728;48.788;2.302;2023-04-25T07:45:16;8.70;99.90
59847;DHT22;45728;48.788;2.302;2023-04-25T07:47:42;8.70;99.90
59847;DHT22;45728;48.788;2.302;2023-04-25T07:50:09;8.70;99.90
59847;DHT22;45728;48.788;2.302;2023-04-25T07:52:36;8.60;99.90
59847;DHT22;45728;48.788;2.302;2023-04-25T07:55:03;8.50;99.90
59847;DHT22;45728;48.788;2.302;2023-04-25T07:57:29;8.60;99.90
59847;DHT22;45728;48.788;2.302;2023-04-25T07:59:56;8.50;99.90
59847;DHT22;45728;48.788;2.302;2023-04-25T08:02:22;8.60;99.90
59847;DHT22;45728;48.788;2.302;2023-04-25T08:04:48;8.60;99.90
59847;DHT22;45728;48.788;2.302;2023-04-25T08:07:15;8.60;99.90
59847;DHT22;45728;48.788;2.302;2023-04-25T08:09:41;8.60;99.90
59847;DHT22;45728;48.788;2.302;2023-04-25T08:12:07;8.60;99.90
59847;DHT22;45728;48.788;2.302;2023-04-25T08:14:33;8.50;99.90
59847;DHT22;45728;48.788;2.302;2023-04-25T08:17:05;8.50;99.90
59847;DHT22;45728;48.788;2.302;2023-04-25T08:19:31;8.60;99.90
59847;DHT22;45728;48.788;2.302;2023-04-25T08:21:57;8.70;99.90
59847;DHT22;45728;48.788;2.302;2023-04-25T08:24:24;8.80;99.90
59847;DHT22;45728;48.788;2.302;2023-04-25T08:26:51;8.90;99.90
59847;DHT22;45728;48.788;2.302;2023-04-25T08:29:17;8.90;99.90
59847;DHT22;45728;48.788;2.302;2023-04-25T08:31:43;8.90;99.90
59847;DHT22;45728;48.788;2.302;2023-04-25T08:34:09;8.90;99.90
59847;DHT22;45728;48.788;2.302;2023-04-25T08:36:37;9.10;99.90
59847;DHT22;45728;48.788;2.302;2023-04-25T08:39:03;9.20;99.90
59847;DHT22;45728;48.788;2.302;2023-04-25T08:41:29;9.40;99.90
59847;DHT22;45728;48.788;2.302;2023-04-25T08:43:56;9.40;99.90
59847;DHT22;45728;48.788;2.302;2023-04-25T08:46:23;9.30;99.90
59847;DHT22;45728;48.788;2.302;2023-04-25T08:48:50;9.30;99.90
59847;DHT22;45728;48.788;2.302;2023-04-25T08:51:22;9.30;99.90
59847;DHT22;45728;48.788;2.302;2023-04-25T08:53:52;9.30;99.90
59847;DHT22;45728;48.788;2.302;2023-04-25T08:56:18;9.40;99.90
59847;DHT22;45728;48.788;2.302;2023-04-25T08:58:48;9.50;99.90
59847;DHT22;45728;48.788;2.302;2023-04-25T09:01:16;9.40;99.90
59847;DHT22;45728;48.788;2.302;2023-04-25T09:03:44;9.40;99.90
59847;DHT22;45728;48.788;2.302;2023-04-25T09:06:11;9.40;99.90
59847;DHT22;45728;48.788;2.302;2023-04-25T09:08:37;9.20;99.90
59847;DHT22;45728;48.788;2.302;2023-04-25T09:11:07;9.20;99.90
59847;DHT22;45728;48.788;2.302;2023-04-25T09:13:33;9.10;99.90
59847;DHT22;45728;48.788;2.302;2023-04-25T09:15:59;9.10;99.90
59847;DHT22;45728;48.788;2.302;2023-04-25T09:18:31;9.10;99.90
59847;DHT22;45728;48.788;2.302;2023-04-25T09:21:08;9.20;99.90
59847;DHT22;45728;48.788;2.302;2023-04-25T09:23:48;9.20;99.90
59847;DHT22;45728;48.788;2.302;2023-04-25T09:26:15;9.20;99.90
59847;DHT22;45728;48.788;2.302;2023-04-25T09:28:42;9.20;99.90
59847;DHT22;45728;48.788;2.302;2023-04-25T09:31:11;9.30;99.90
59847;DHT22;45728;48.788;2.302;2023-04-25T09:33:38;9.40;99.90
59847;DHT22;45728;48.788;2.302;2023-04-25T09:36:06;9.50;99.90
59847;DHT22;45728;48.788;2.302;2023-04-25T09:38:46;9.50;99.90
59847;DHT22;45728;48.788;2.302;2023-04-25T09:41:12;9.60;99.90
59847;DHT22;45728;48.788;2.302;2023-04-25T09:43:39;9.70;99.90
59847;DHT22;45728;48.788;2.302;2023-04-25T09:46:11;10.00;99.90
59847;DHT22;45728;48.788;2.302;2023-04-25T09:48:37;10.00;99.90
59847;DHT22;45728;48.788;2.302;2023-04-25T09:51:13;10.00;99.90
59847;DHT22;45728;48.788;2.302;2023-04-25T09:53:44;9.80;99.90
59847;DHT22;45728;48.788;2.302;2023-04-25T09:56:20;9.70;99.90
59847;DHT22;45728;48.788;2.302;2023-04-25T09:58:49;9.80;99.90
59847;DHT22;45728;48.788;2.302;2023-04-25T10:01:16;9.80;99.90
59847;DHT22;45728;48.788;2.302;2023-04-25T10:03:43;9.80;99.90
59847;DHT22;45728;48.788;2.302;2023-04-25T10:06:19;9.70;99.90
59847;DHT22;45728;48.788;2.302;2023-04-25T10:08:49;9.60;99.90
59847;DHT22;45728;48.788;2.302;2023-04-25T10:11:17;9.70;99.90
59847;DHT22;45728;48.788;2.302;2023-04-25T10:13:44;9.60;99.90
59847;DHT22;45728;48.788;2.302;2023-04-25T10:16:11;9.70;99.90
59847;DHT22;45728;48.788;2.302;2023-04-25T10:18:37;9.70;99.90
59847;DHT22;45728;48.788;2.302;2023-04-25T10:21:05;9.60;99.90
59847;DHT22;45728;48.788;2.302;2023-04-25T10:23:32;9.70;99.90
59847;DHT22;45728;48.788;2.302;2023-04-25T10:26:00;9.90;99.90
59847;DHT22;45728;48.788;2.302;2023-04-25T10:28:27;10.00;99.90
59847;DHT22;45728;48.788;2.302;2023-04-25T10:30:58;9.90;99.90
59847;DHT22;45728;48.788;2.302;2023-04-25T10:33:38;10.10;99.90
59847;DHT22;45728;48.788;2.302;2023-04-25T10:36:12;10.10;99.90
59847;DHT22;45728;48.788;2.302;2023-04-25T10:38:39;10.10;99.90
59847;DHT22;45728;48.788;2.302;2023-04-25T10:41:07;10.10;99.90
59847;DHT22;45728;48.788;2.302;2023-04-25T10:43:37;10.20;99.90
59847;DHT22;45728;48.788;2.302;2023-04-25T10:46:17;10.10;99.90
59847;DHT22;45728;48.788;2.302;2023-04-25T10:48:46;10.20;99.90
59847;DHT22;45728;48.788;2.302;2023-04-25T10:51:24;10.10;99.90
59847;DHT22;45728;48.788;2.302;2023-04-25T10:54:11;10.20;99.90
59847;DHT22;45728;48.788;2.302;2023-04-25T10:56:39;10.10;99.90
59847;DHT22;45728;48.788;2.302;2023-04-25T11:01:47;10.40;99.90
59847;DHT22;45728;48.788;2.302;2023-04-25T11:04:31;10.40;99.90
59847;DHT22;45728;48.788;2.302;2023-04-25T11:07:21;10.20;99.90
59847;DHT22;45728;48.788;2.302;2023-04-25T11:09:49;10.40;99.90
59847;DHT22;45728;48.788;2.302;2023-04-25T11:12:15;10.40;99.90
59847;DHT22;45728;48.788;2.302;2023-04-25T11:14:43;10.40;99.90
59847;DHT22;45728;48.788;2.302;2023-04-25T11:17:09;10.50;99.90
59847;DHT22;45728;48.788;2.302;2023-04-25T11:19:36;10.60;99.90
59847;DHT22;45728;48.788;2.302;2023-04-25T11:22:03;10.60;99.90
59847;DHT22;45728;48.788;2.302;2023-04-25T11:24:30;10.50;99.90
59847;DHT22;45728;48.788;2.302;2023-04-25T11:27:01;10.40;99.90
59847;DHT22;45728;48.788;2.302;2023-04-25T11:29:32;10.30;99.90
59847;DHT22;45728;48.788;2.302;2023-04-25T11:31:59;10.30;99.90
59847;DHT22;45728;48.788;2.302;2023-04-25T11:34:27;10.30;99.90
59847;DHT22;45728;48.788;2.302;2023-04-25T11:36:56;10.30;99.90
59847;DHT22;45728;48.788;2.302;2023-04-25T11:39:24;10.30;99.90
59847;DHT22;45728;48.788;2.302;2023-04-25T11:41:51;10.30;99.90
59847;DHT22;45728;48.788;2.302;2023-04-25T11:44:18;10.30;99.90
59847;DHT22;45728;48.788;2.302;2023-04-25T11:46:45;10.40;99.90
59847;DHT22;45728;48.788;2.302;2023-04-25T11:49:14;10.50;99.90
59847;DHT22;45728;48.788;2.302;2023-04-25T11:51:42;10.60;99.90
59847;DHT22;45728;48.788;2.302;2023-04-25T11:54:09;10.60;99.90
59847;DHT22;45728;48.788;2.302;2023-04-25T11:56:35;10.70;99.90
59847;DHT22;45728;48.788;2.302;2023-04-25T11:59:03;10.80;99.90
59847;DHT22;45728;48.788;2.302;2023-04-25T12:01:34;10.90;99.90
59847;DHT22;45728;48.788;2.302;2023-04-25T12:04:21;10.90;99.90
59847;DHT22;45728;48.788;2.302;2023-04-25T12:06:52;11.00;99.90
59847;DHT22;45728;48.788;2.302;2023-04-25T12:09:29;11.10;99.90
59847;DHT22;45728;48.788;2.302;2023-04-25T12:11:58;11.00;99.90
59847;DHT22;45728;48.788;2.302;2023-04-25T12:14:26;11.00;99.90
59847;DHT22;45728;48.788;2.302;2023-04-25T12:16:56;11.20;99.90
59847;DHT22;45728;48.788;2.302;2023-04-25T12:19:23;11.10;99.90
59847;DHT22;45728;48.788;2.302;2023-04-25T12:21:50;11.20;99.90
59847;DHT22;45728;48.788;2.302;2023-04-25T12:24:24;11.20;99.90
59847;DHT22;45728;48.788;2.302;2023-04-25T12:26:59;11.20;99.90
59847;DHT22;45728;48.788;2.302;2023-04-25T12:29:28;11.20;99.90
59847;DHT22;45728;48.788;2.302;2023-04-25T12:31:55;11.20;99.90
59847;DHT22;45728;48.788;2.302;2023-04-25T12:34:22;11.20;99.90
59847;DHT22;45728;48.788;2.302;2023-04-25T12:36:50;11.20;99.90
59847;DHT22;45728;48.788;2.302;2023-04-25T12:39:20;11.20;99.90
59847;DHT22;45728;48.788;2.302;2023-04-25T12:41:48;11.10;99.90
59847;DHT22;45728;48.788;2.302;2023-04-25T12:44:15;11.10;99.90
59847;DHT22;45728;48.788;2.302;2023-04-25T12:46:41;11.20;99.90
59847;DHT22;45728;48.788;2.302;2023-04-25T12:49:08;11.30;99.90
59847;DHT22;45728;48.788;2.302;2023-04-25T12:51:35;11.30;99.90
59847;DHT22;45728;48.788;2.302;2023-04-25T12:54:03;11.00;99.90
59847;DHT22;45728;48.788;2.302;2023-04-25T12:56:30;11.00;99.90
59847;DHT22;45728;48.788;2.302;2023-04-25T12:58:57;11.00;99.90
59847;DHT22;45728;48.788;2.302;2023-04-25T13:01:24;11.10;99.90
59847;DHT22;45728;48.788;2.302;2023-04-25T13:03:51;11.10;99.90
59847;DHT22;45728;48.788;2.302;2023-04-25T13:06:18;11.00;99.90
59847;DHT22;45728;48.788;2.302;2023-04-25T13:08:44;11.10;99.90
59847;DHT22;45728;48.788;2.302;2023-04-25T13:11:10;11.10;99.90
59847;DHT22;45728;48.788;2.302;2023-04-25T13:13:37;11.10;99.90
59847;DHT22;45728;48.788;2.302;2023-04-25T13:16:04;11.20;99.90
59847;DHT22;45728;48.788;2.302;2023-04-25T13:18:31;11.40;99.90
59847;DHT22;45728;48.788;2.302;2023-04-25T13:20:58;11.30;99.90
59847;DHT22;45728;48.788;2.302;2023-04-25T13:23:26;11.30;99.90
59847;DHT22;45728;48.788;2.302;2023-04-25T13:25:53;11.60;99.90
59847;DHT22;45728;48.788;2.302;2023-04-25T13:28:21;11.40;99.90
59847;DHT22;45728;48.788;2.302;2023-04-25T13:30:47;11.40;99.90
59847;DHT22;45728;48.788;2.302;2023-04-25T13:33:14;11.40;99.90
59847;DHT22;45728;48.788;2.302;2023-04-25T13:35:41;11.50;99.90
59847;DHT22;45728;48.788;2.302;2023-04-25T13:38:08;11.50;99.90
59847;DHT22;45728;48.788;2.302;2023-04-25T13:40:34;11.60;99.90
59847;DHT22;45728;48.788;2.302;2023-04-25T13:43:01;11.60;99.90
59847;DHT22;45728;48.788;2.302;2023-04-25T13:45:27;11.50;99.90
59847;DHT22;45728;48.788;2.302;2023-04-25T13:47:54;11.50;99.90
59847;DHT22;45728;48.788;2.302;2023-04-25T13:50:20;11.40;99.90
59847;DHT22;45728;48.788;2.302;2023-04-25T13:52:46;11.60;99.90
59847;DHT22;45728;48.788;2.302;2023-04-25T13:55:12;11.60;99.90
59847;DHT22;45728;48.788;2.302;2023-04-25T13:57:38;11.70;99.90
59847;DHT22;45728;48.788;2.302;2023-04-25T14:00:05;11.70;99.90
59847;DHT22;45728;48.788;2.302;2023-04-25T14:02:37;11.60;99.90
59847;DHT22;45728;48.788;2.302;2023-04-25T14:05:04;11.50;99.90
59847;DHT22;45728;48.788;2.302;2023-04-25T14:07:31;11.60;99.90
59847;DHT22;45728;48.788;2.302;2023-04-25T14:09:57;11.70;99.90
59847;DHT22;45728;48.788;2.302;2023-04-25T14:12:23;11.70;99.90
59847;DHT22;45728;48.788;2.302;2023-04-25T14:14:50;11.70;99.90
59847;DHT22;45728;48.788;2.302;2023-04-25T14:17:16;11.60;99.90
59847;DHT22;45728;48.788;2.302;2023-04-25T14:19:42;11.70;99.90
59847;DHT22;45728;48.788;2.302;2023-04-25T14:22:09;11.60;99.90
59847;DHT22;45728;48.788;2.302;2023-04-25T14:24:35;11.70;99.90
59847;DHT22;45728;48.788;2.302;2023-04-25T14:27:02;11.80;99.90
59847;DHT22;45728;48.788;2.302;2023-04-25T14:29:28;11.80;99.90
59847;DHT22;45728;48.788;2.302;2023-04-25T14:31:54;11.70;99.90
59847;DHT22;45728;48.788;2.302;2023-04-25T14:34:22;11.40;99.90
59847;DHT22;45728;48.788;2.302;2023-04-25T14:36:48;11.50;99.90
59847;DHT22;45728;48.788;2.302;2023-04-25T14:39:14;11.60;99.90
59847;DHT22;45728;48.788;2.302;2023-04-25T14:41:40;11.70;99.90
59847;DHT22;45728;48.788;2.302;2023-04-25T14:44:06;11.80;99.90
59847;DHT22;45728;48.788;2.302;2023-04-25T14:46:32;11.70;99.90
59847;DHT22;45728;48.788;2.302;2023-04-25T14:48:59;11.60;99.90
59847;DHT22;45728;48.788;2.302;2023-04-25T14:51:25;11.70;99.90
59847;DHT22;45728;48.788;2.302;2023-04-25T14:53:52;11.60;99.90
59847;DHT22;45728;48.788;2.302;2023-04-25T14:56:18;11.70;99.90
59847;DHT22;45728;48.788;2.302;2023-04-25T14:58:44;11.60;99.90
59847;DHT22;45728;48.788;2.302;2023-04-25T15:01:11;11.50;99.90
59847;DHT22;45728;48.788;2.302;2023-04-25T15:03:39;11.50;99.90
59847;DHT22;45728;48.788;2.302;2023-04-25T15:06:06;11.40;99.90
59847;DHT22;45728;48.788;2.302;2023-04-25T15:08:32;11.40;99.90
59847;DHT22;45728;48.788;2.302;2023-04-25T15:10:58;11.30;99.90
59847;DHT22;45728;48.788;2.302;2023-04-25T15:13:25;11.30;99.90
59847;DHT22;45728;48.788;2.302;2023-04-25T15:15:52;11.30;99.90
59847;DHT22;45728;48.788;2.302;2023-04-25T15:18:20;11.30;99.90
59847;DHT22;45728;48.788;2.302;2023-04-25T15:20:51;11.30;99.90
59847;DHT22;45728;48.788;2.302;2023-04-25T15:23:18;11.30;99.90
59847;DHT22;45728;48.788;2.302;2023-04-25T15:25:45;11.30;99.90
59847;DHT22;45728;48.788;2.302;2023-04-25T15:28:11;11.30;99.90
59847;DHT22;45728;48.788;2.302;2023-04-25T15:30:40;11.30;99.90
59847;DHT22;45728;48.788;2.302;2023-04-25T15:33:06;11.50;99.90
59847;DHT22;45728;48.788;2.302;2023-04-25T15:35:32;11.50;99.90
59847;DHT22;45728;48.788;2.302;2023-04-25T15:37:58;11.60;99.90
59847;DHT22;45728;48.788;2.302;2023-04-25T15:40:25;11.60;99.90
59847;DHT22;45728;48.788;2.302;2023-04-25T15:42:51;11.60;99.90